Time;durP1;ratioP1;P1;durP2;ratioP2;P2;SDS_P1;SDS_P2;PMS_P1;PMS_P2;Temp;Humidity;BMP_temperature;BMP_pressure;BME280_temperature;BME280_humidity;BME280_pressure;Samples;Min_cycle;Max_cycle;Signal;HPM_P1;HPM_P2
2021/12/27 00:00:04;;;;;;;;;;;;;;;3.36;nan;99381.09;5050004;28;19963;-88
2021/12/27 00:02:29;;;;;;;;;;;;;;;3.38;nan;99397.47;5047221;28;19925;-86
2021/12/27 00:04:54;;;;;;;;;;;;;;;3.33;nan;99394.44;5036986;28;19921;-88
2021/12/27 00:07:20;;;;;;;;;;;;;;;3.28;nan;99392.22;5035830;28;19952;-86
2021/12/27 00:09:46;;;;;;;;;;;;;;;3.32;nan;99390.19;5034615;28;19921;-86
2021/12/27 00:12:11;;;;;;;;;;;;;;;3.34;nan;99386.47;5034916;28;19917;-85
2021/12/27 00:14:37;;;;;;;;;;;;;;;3.40;nan;99385.94;5045834;28;20345;-86
2021/12/27 00:17:02;;;;;;;;;;;;;;;3.42;nan;99391.03;5048586;28;20365;-85
2021/12/27 00:19:27;;;;;;;;;;;;;;;3.44;nan;99381.28;5055004;28;19966;-86
2021/12/27 00:21:52;;;;;;;;;;;;;;;3.47;nan;99382.78;5055381;28;20465;-86
2021/12/27 00:24:18;;;;;;;;;;;;;;;3.43;nan;99374.38;5050967;28;19939;-87
2021/12/27 00:26:44;;;;;;;;;;;;;;;3.47;nan;99383.59;5049007;28;19917;-87
2021/12/27 00:29:09;;;;;;;;;;;;;;;3.46;nan;99371.50;5050438;28;20274;-87
2021/12/27 00:31:35;;;;;;;;;;;;;;;3.43;nan;99379.59;5044352;28;19948;-87
2021/12/27 00:34:00;;;;;;;;;;;;;;;3.40;nan;99379.88;5044433;28;20434;-87
2021/12/27 00:36:25;;;;;;;;;;;;;;;3.39;nan;99384.28;5051417;28;19925;-87
2021/12/27 00:38:50;;;;;;;;;;;;;;;3.39;nan;99388.69;5042955;28;19971;-87
2021/12/27 00:41:16;;;;;;;;;;;;;;;3.36;nan;99388.94;5038420;28;19962;-87
2021/12/27 00:43:41;;;;;;;;;;;;;;;3.36;nan;99379.34;5049996;28;20003;-86
2021/12/27 00:46:07;;;;;;;;;;;;;;;3.41;nan;99371.09;5047309;28;19921;-87
2021/12/27 00:48:32;;;;;;;;;;;;;;;3.42;nan;99375.34;5041787;28;19925;-85
2021/12/27 00:50:57;;;;;;;;;;;;;;;3.42;nan;99372.72;5045632;28;19921;-85
2021/12/27 00:53:22;;;;;;;;;;;;;;;3.44;nan;99370.00;5050294;28;19932;-85
2021/12/27 00:55:48;;;;;;;;;;;;;;;3.42;nan;99371.91;5048098;28;20388;-85
2021/12/27 00:58:13;;;;;;;;;;;;;;;3.46;nan;99368.91;5044841;28;19917;-86
2021/12/27 01:00:38;;;;;;;;;;;;;;;3.45;nan;99379.47;5036469;28;20297;-86
2021/12/27 01:03:03;;;;;;;;;;;;;;;3.42;nan;99370.13;5042858;28;20011;-86
2021/12/27 01:05:29;;;;;;;;;;;;;;;3.41;nan;99373.72;5039203;28;19921;-85
2021/12/27 01:07:54;;;;;;;;;;;;;;;3.39;nan;99383.47;5050140;28;20214;-86
2021/12/27 01:10:29;;;;;;;;;;;;;;;3.37;nan;99377.53;5039526;28;19944;-86
2021/12/27 01:18:04;;;;;;;;;;;;;;;3.40;nan;99380.69;5047440;28;19932;-86
2021/12/27 01:20:29;;;;;;;;;;;;;;;3.40;nan;99385.09;5041499;28;20015;-87
2021/12/27 01:22:55;;;;;;;;;;;;;;;3.41;nan;99378.94;5040340;28;19960;-86
2021/12/27 01:25:20;;;;;;;;;;;;;;;3.39;nan;99376.44;5037870;28;20382;-86
2021/12/27 01:27:46;;;;;;;;;;;;;;;3.42;nan;99372.72;5038532;28;20007;-87
2021/12/27 01:30:15;;;;;;;;;;;;;;;3.38;nan;99382.66;5046345;28;19921;-86
2021/12/27 01:32:46;;;;;;;;;;;;;;;3.37;nan;99383.59;5049897;28;19921;-86
2021/12/27 01:35:12;;;;;;;;;;;;;;;3.43;nan;99379.59;5036414;28;19935;-86
2021/12/27 01:37:37;;;;;;;;;;;;;;;3.39;nan;99375.63;5045028;28;20135;-87
2021/12/27 01:40:04;;;;;;;;;;;;;;;3.37;nan;99382.75;5050950;28;19947;-86
2021/12/27 01:42:29;;;;;;;;;;;;;;;3.40;nan;99374.66;5045236;28;19921;-86
2021/12/27 01:44:54;;;;;;;;;;;;;;;3.43;nan;99374.38;5046306;28;19925;-87
2021/12/27 01:47:20;;;;;;;;;;;;;;;3.44;nan;99376.03;5037872;28;19924;-87
2021/12/27 01:49:45;;;;;;;;;;;;;;;3.46;nan;99376.75;5051577;28;19925;-87
2021/12/27 01:52:10;;;;;;;;;;;;;;;3.49;nan;99375.66;5050283;28;20318;-86
2021/12/27 01:54:36;;;;;;;;;;;;;;;3.49;nan;99379.06;5051560;28;19920;-87
2021/12/27 01:57:01;;;;;;;;;;;;;;;3.50;nan;99372.06;5051052;28;20393;-86
2021/12/27 01:59:26;;;;;;;;;;;;;;;3.47;nan;99367.09;5051976;28;19921;-85
2021/12/27 02:01:52;;;;;;;;;;;;;;;3.48;nan;99369.59;5043136;28;19921;-86
2021/12/27 02:04:17;;;;;;;;;;;;;;;3.54;nan;99358.59;5051548;28;19964;-86
2021/12/27 02:06:42;;;;;;;;;;;;;;;3.49;nan;99366.00;5053434;28;20016;-86
2021/12/27 02:09:07;;;;;;;;;;;;;;;3.48;nan;99366.13;5052961;28;19927;-85
2021/12/27 02:11:34;;;;;;;;;;;;;;;3.51;nan;99363.28;5038826;28;19936;-85
2021/12/27 02:14:01;;;;;;;;;;;;;;;3.56;nan;99355.84;5034766;28;19928;-86
2021/12/27 02:16:27;;;;;;;;;;;;;;;3.59;nan;99348.53;5043602;28;19925;-86
2021/12/27 02:18:52;;;;;;;;;;;;;;;3.55;nan;99354.19;5052794;28;19955;-86
2021/12/27 02:21:18;;;;;;;;;;;;;;;3.49;nan;99349.50;5045189;28;20023;-85
2021/12/27 02:23:44;;;;;;;;;;;;;;;3.48;nan;99353.91;5050546;28;19952;-85
2021/12/27 02:26:10;;;;;;;;;;;;;;;3.52;nan;99354.47;5054183;28;19967;-86
2021/12/27 02:28:36;;;;;;;;;;;;;;;3.59;nan;99359.00;5056701;28;20011;-85
2021/12/27 02:31:02;;;;;;;;;;;;;;;3.63;nan;99345.69;5052228;28;19920;-85
2021/12/27 02:33:27;;;;;;;;;;;;;;;3.66;nan;99342.78;5050914;28;19928;-85
2021/12/27 02:35:56;;;;;;;;;;;;;;;3.72;nan;99344.84;5048591;28;19956;-86
2021/12/27 02:38:23;;;;;;;;;;;;;;;3.76;nan;99344.41;5051161;28;19920;-84
2021/12/27 02:40:51;;;;;;;;;;;;;;;3.80;nan;99343.19;5050263;28;19920;-85
2021/12/27 02:43:17;;;;;;;;;;;;;;;3.82;nan;99336.03;5048059;28;19925;-85
2021/12/27 02:45:44;;;;;;;;;;;;;;;3.83;nan;99335.06;5040782;28;20267;-84
2021/12/27 02:48:09;;;;;;;;;;;;;;;3.83;nan;99334.25;5050566;28;20275;-84
2021/12/27 02:50:35;;;;;;;;;;;;;;;3.88;nan;99323.38;5040361;28;19928;-85
2021/12/27 02:53:01;;;;;;;;;;;;;;;3.92;nan;99322.97;5045321;28;19921;-86
2021/12/27 02:55:27;;;;;;;;;;;;;;;3.91;nan;99325.69;5047216;28;20379;-86
2021/12/27 02:57:52;;;;;;;;;;;;;;;3.94;nan;99318.41;5049824;28;19925;-85
2021/12/27 03:00:20;;;;;;;;;;;;;;;3.93;nan;99314.16;5046914;28;19920;-86
2021/12/27 03:02:46;;;;;;;;;;;;;;;3.96;nan;99313.06;5045306;28;19936;-86
2021/12/27 03:05:13;;;;;;;;;;;;;;;3.97;nan;99312.09;5057987;28;20075;-86
2021/12/27 03:07:40;;;;;;;;;;;;;;;3.99;nan;99316.22;5049948;28;19995;-86
2021/12/27 03:10:05;;;;;;;;;;;;;;;4.01;nan;99313.47;5043973;28;20154;-87
2021/12/27 03:12:30;;;;;;;;;;;;;;;3.98;nan;99308.50;5051244;28;19963;-85
2021/12/27 03:14:56;;;;;;;;;;;;;;;3.98;nan;99311.09;5045970;28;19922;-86
2021/12/27 03:17:21;;;;;;;;;;;;;;;3.99;nan;99307.53;5035511;28;19931;-85
2021/12/27 03:19:46;;;;;;;;;;;;;;;3.95;nan;99312.22;5039837;28;19921;-85
2021/12/27 03:22:11;;;;;;;;;;;;;;;3.96;nan;99313.06;5051762;28;20007;-85
2021/12/27 03:24:36;;;;;;;;;;;;;;;4.06;nan;99313.06;5056227;28;19917;-85
2021/12/27 03:27:02;;;;;;;;;;;;;;;3.99;nan;99308.38;5049008;28;19928;-85
2021/12/27 03:29:27;;;;;;;;;;;;;;;3.96;nan;99313.88;5043301;28;19921;-85
2021/12/27 03:31:55;;;;;;;;;;;;;;;4.01;nan;99316.09;5050721;28;19920;-85
2021/12/27 03:34:20;;;;;;;;;;;;;;;4.01;nan;99322.13;5057538;28;19928;-85
2021/12/27 03:36:47;;;;;;;;;;;;;;;4.09;nan;99315.38;5053406;28;19929;-84
2021/12/27 03:39:13;;;;;;;;;;;;;;;4.16;nan;99311.22;5040714;28;20011;-86
2021/12/27 03:41:38;;;;;;;;;;;;;;;4.23;nan;99310.53;5053273;28;20009;-86
2021/12/27 03:44:03;;;;;;;;;;;;;;;4.30;nan;99302.94;5054298;28;19920;-85
2021/12/27 03:46:29;;;;;;;;;;;;;;;4.37;nan;99309.25;5056770;28;19920;-86
2021/12/27 03:48:55;;;;;;;;;;;;;;;4.44;nan;99309.53;5050010;28;19971;-86
2021/12/27 03:51:20;;;;;;;;;;;;;;;4.52;nan;99306.19;5056235;28;20058;-85
2021/12/27 03:53:45;;;;;;;;;;;;;;;4.58;nan;99303.81;5056790;28;19916;-85
2021/12/27 03:56:11;;;;;;;;;;;;;;;4.67;nan;99312.59;5056315;28;20024;-85
2021/12/27 03:58:54;;;;;;;;;;;;;;;4.72;nan;99305.16;5039082;28;20387;-85
2021/12/27 04:01:21;;;;;;;;;;;;;;;4.79;nan;99306.22;5042610;28;20136;-85
2021/12/27 04:03:48;;;;;;;;;;;;;;;4.83;nan;99307.56;5050798;28;20401;-85
2021/12/27 04:06:15;;;;;;;;;;;;;;;4.97;nan;99302.81;5037148;28;19935;-87
2021/12/27 04:08:41;;;;;;;;;;;;;;;5.17;nan;99312.22;5052455;28;20270;-86
2021/12/27 04:11:06;;;;;;;;;;;;;;;5.29;nan;99302.34;5052186;28;19924;-86
2021/12/27 04:13:31;;;;;;;;;;;;;;;5.41;nan;99300.34;5048606;28;19928;-86
2021/12/27 04:15:57;;;;;;;;;;;;;;;5.46;nan;99295.50;5052311;28;19988;-86
2021/12/27 04:18:22;;;;;;;;;;;;;;;5.54;nan;99295.56;5053300;28;20263;-86
2021/12/27 04:20:47;;;;;;;;;;;;;;;5.55;nan;99297.19;5045338;28;19913;-85
2021/12/27 04:23:13;;;;;;;;;;;;;;;5.61;nan;99309.72;5050711;28;20390;-86
2021/12/27 04:25:39;;;;;;;;;;;;;;;5.71;nan;99302.59;5050627;28;20012;-85
2021/12/27 04:28:05;;;;;;;;;;;;;;;5.73;nan;99300.66;5040445;28;19934;-86
2021/12/27 04:30:30;;;;;;;;;;;;;;;5.80;nan;99300.06;5047933;28;20352;-86
2021/12/27 04:32:55;;;;;;;;;;;;;;;5.80;nan;99294.81;5048053;28;19916;-85
2021/12/27 04:35:21;;;;;;;;;;;;;;;5.86;nan;99302.06;5051648;28;19928;-86
2021/12/27 04:37:47;;;;;;;;;;;;;;;5.90;nan;99290.28;5049769;28;20039;-86
2021/12/27 04:40:13;;;;;;;;;;;;;;;5.90;nan;99296.38;5050904;28;19943;-85
2021/12/27 04:42:40;;;;;;;;;;;;;;;5.92;nan;99301.47;5053439;28;19976;-85
2021/12/27 04:45:06;;;;;;;;;;;;;;;5.97;nan;99291.38;5040441;28;19967;-85
2021/12/27 04:47:31;;;;;;;;;;;;;;;5.97;nan;99291.38;5034566;28;20501;-85
2021/12/27 04:49:56;;;;;;;;;;;;;;;5.94;nan;99287.25;5047878;28;19925;-84
2021/12/27 04:52:21;;;;;;;;;;;;;;;5.98;nan;99287.75;5055835;28;19943;-84
2021/12/27 04:54:47;;;;;;;;;;;;;;;6.03;nan;99287.28;5037045;28;19918;-84
2021/12/27 04:57:12;;;;;;;;;;;;;;;6.04;nan;99283.72;5046466;28;19932;-84
2021/12/27 04:59:37;;;;;;;;;;;;;;;6.06;nan;99290.44;5057561;28;19979;-84
2021/12/27 05:02:03;;;;;;;;;;;;;;;6.13;nan;99281.00;5056291;28;20378;-84
2021/12/27 05:04:28;;;;;;;;;;;;;;;6.13;nan;99285.41;5053192;28;19979;-84
2021/12/27 05:06:54;;;;;;;;;;;;;;;6.13;nan;99280.16;5055373;28;20213;-84
2021/12/27 05:09:19;;;;;;;;;;;;;;;6.14;nan;99274.75;5056219;28;19920;-84
2021/12/27 05:11:44;;;;;;;;;;;;;;;6.18;nan;99279.72;5059332;28;19925;-85
2021/12/27 05:14:09;;;;;;;;;;;;;;;6.19;nan;99273.47;5057139;28;20019;-84
2021/12/27 05:16:35;;;;;;;;;;;;;;;6.24;nan;99282.53;5053860;28;20000;-84
2021/12/27 05:19:00;;;;;;;;;;;;;;;6.27;nan;99273.50;5058843;28;20381;-84
2021/12/27 05:21:25;;;;;;;;;;;;;;;6.28;nan;99268.13;5057716;28;19943;-84
2021/12/27 05:23:51;;;;;;;;;;;;;;;6.28;nan;99265.50;5055842;28;19916;-84
2021/12/27 05:26:16;;;;;;;;;;;;;;;6.27;nan;99265.63;5054855;28;19971;-84
2021/12/27 05:28:42;;;;;;;;;;;;;;;6.31;nan;99265.16;5055954;28;20347;-84
2021/12/27 05:31:07;;;;;;;;;;;;;;;6.28;nan;99262.06;5052361;28;19921;-84
2021/12/27 05:33:32;;;;;;;;;;;;;;;6.35;nan;99258.63;5058615;28;20096;-84
2021/12/27 05:35:57;;;;;;;;;;;;;;;6.32;nan;99253.72;5053423;28;20007;-84
2021/12/27 05:38:23;;;;;;;;;;;;;;;6.33;nan;99254.53;5062151;28;19948;-84
2021/12/27 05:40:48;;;;;;;;;;;;;;;6.33;nan;99254.53;5060319;28;19927;-84
2021/12/27 05:43:13;;;;;;;;;;;;;;;6.37;nan;99250.63;5052554;28;19927;-84
2021/12/27 05:45:39;;;;;;;;;;;;;;;6.37;nan;99240.94;5059467;28;19995;-84
2021/12/27 05:48:04;;;;;;;;;;;;;;;6.36;nan;99244.56;5050064;28;19917;-84
2021/12/27 05:50:30;;;;;;;;;;;;;;;6.36;nan;99239.31;5059915;28;19928;-83
2021/12/27 05:52:55;;;;;;;;;;;;;;;6.32;nan;99243.22;5064959;28;19947;-83
2021/12/27 05:55:21;;;;;;;;;;;;;;;6.34;nan;99241.25;5064638;28;20094;-84
2021/12/27 05:57:46;;;;;;;;;;;;;;;6.37;nan;99232.25;5054547;28;19925;-84
2021/12/27 06:00:12;;;;;;;;;;;;;;;6.37;nan;99229.63;5051975;28;19918;-83
2021/12/27 06:02:38;;;;;;;;;;;;;;;6.34;nan;99228.13;5041722;28;19921;-84
2021/12/27 06:05:03;;;;;;;;;;;;;;;6.36;nan;99223.53;5056306;28;19921;-84
2021/12/27 06:07:30;;;;;;;;;;;;;;;6.36;nan;99233.19;5046260;28;20378;-84
2021/12/27 06:09:55;;;;;;;;;;;;;;;6.38;nan;99233.88;5052198;28;19921;-83
2021/12/27 06:12:20;;;;;;;;;;;;;;;6.36;nan;99228.78;5055073;28;19936;-84
2021/12/27 06:14:45;;;;;;;;;;;;;;;6.34;nan;99229.91;5057883;28;19932;-84
2021/12/27 06:17:10;;;;;;;;;;;;;;;6.34;nan;99224.66;5050330;28;19925;-83
2021/12/27 06:19:35;;;;;;;;;;;;;;;6.34;nan;99220.25;5053437;28;19924;-84
2021/12/27 06:22:01;;;;;;;;;;;;;;;6.21;nan;99224.28;5032705;28;19975;-84
2021/12/27 06:24:26;;;;;;;;;;;;;;;6.25;nan;99225.63;5049915;28;20341;-84
2021/12/27 06:26:51;;;;;;;;;;;;;;;6.27;nan;99216.59;5021156;28;20019;-84
2021/12/27 06:29:16;;;;;;;;;;;;;;;6.25;nan;99221.19;5032969;28;20295;-84
2021/12/27 06:31:42;;;;;;;;;;;;;;;6.23;nan;99217.06;5014933;28;20400;-84
2021/12/27 06:34:07;;;;;;;;;;;;;;;6.26;nan;99216.75;5027763;28;20416;-84
2021/12/27 06:36:32;;;;;;;;;;;;;;;6.29;nan;99214.66;5038032;28;19925;-84
2021/12/27 06:38:58;;;;;;;;;;;;;;;6.38;nan;99213.69;5050366;28;19928;-84
2021/12/27 06:41:24;;;;;;;;;;;;;;;6.38;nan;99202.38;5041163;28;19924;-84
2021/12/27 06:43:50;;;;;;;;;;;;;;;6.43;nan;99207.97;5053853;28;19920;-85
2021/12/27 06:46:15;;;;;;;;;;;;;;;6.45;nan;99199.94;5054151;28;19917;-84
2021/12/27 06:48:41;;;;;;;;;;;;;;;6.45;nan;99200.75;5051043;28;20003;-84
2021/12/27 06:51:06;;;;;;;;;;;;;;;6.43;nan;99213.22;5053123;28;19921;-84
2021/12/27 06:53:31;;;;;;;;;;;;;;;6.38;nan;99203.19;5056345;28;19917;-84
2021/12/27 06:55:56;;;;;;;;;;;;;;;6.32;nan;99205.63;5052430;28;19916;-84
2021/12/27 06:58:22;;;;;;;;;;;;;;;6.29;nan;99198.91;5051425;28;19945;-83
2021/12/27 07:00:47;;;;;;;;;;;;;;;6.31;nan;99202.16;5050455;28;19943;-84
2021/12/27 07:03:14;;;;;;;;;;;;;;;6.34;nan;99198.41;5060331;28;19917;-84
2021/12/27 07:05:39;;;;;;;;;;;;;;;6.34;nan;99198.41;5057808;28;19920;-84
2021/12/27 07:08:05;;;;;;;;;;;;;;;6.37;nan;99198.09;5057984;28;19916;-84
2021/12/27 07:10:31;;;;;;;;;;;;;;;6.42;nan;99187.94;5060446;28;19927;-84
2021/12/27 07:12:56;;;;;;;;;;;;;;;6.50;nan;99195.84;5056319;28;20293;-84
2021/12/27 07:15:21;;;;;;;;;;;;;;;6.51;nan;99200.13;5047966;28;19964;-84
2021/12/27 07:17:47;;;;;;;;;;;;;;;6.55;nan;99200.63;5052023;28;19948;-84
2021/12/27 07:20:12;;;;;;;;;;;;;;;6.59;nan;99199.34;5059207;28;19940;-84
2021/12/27 07:22:38;;;;;;;;;;;;;;;6.58;nan;99195.09;5056454;28;19931;-84
2021/12/27 07:25:03;;;;;;;;;;;;;;;6.59;nan;99194.09;5041802;28;19921;-84
2021/12/27 07:27:29;;;;;;;;;;;;;;;6.59;nan;99194.91;5042939;28;19989;-84
2021/12/27 07:29:54;;;;;;;;;;;;;;;6.59;nan;99208.03;5048391;28;19935;-84
2021/12/27 07:32:20;;;;;;;;;;;;;;;6.65;nan;99206.59;5052177;28;19925;-86
2021/12/27 07:34:46;;;;;;;;;;;;;;;6.69;nan;99196.56;5055473;28;20451;-85
2021/12/27 07:37:11;;;;;;;;;;;;;;;6.77;nan;99199.25;5053907;28;20240;-86
2021/12/27 07:39:36;;;;;;;;;;;;;;;6.78;nan;99195.63;5051539;28;20448;-85
2021/12/27 07:42:02;;;;;;;;;;;;;;;6.76;nan;99202.84;5041139;28;19917;-85
2021/12/27 07:44:27;;;;;;;;;;;;;;;6.77;nan;99201.88;5049082;28;20309;-85
2021/12/27 07:46:52;;;;;;;;;;;;;;;6.78;nan;99203.50;5053564;28;19921;-85
2021/12/27 07:49:18;;;;;;;;;;;;;;;6.80;nan;99207.63;5042243;28;20007;-86
2021/12/27 07:51:43;;;;;;;;;;;;;;;6.83;nan;99209.09;5053968;28;19921;-86
2021/12/27 07:54:08;;;;;;;;;;;;;;;6.86;nan;99200.88;5047998;28;20386;-86
2021/12/27 07:56:34;;;;;;;;;;;;;;;6.86;nan;99205.31;5054159;28;19952;-86
2021/12/27 07:59:04;;;;;;;;;;;;;;;6.85;nan;99209.75;5041532;28;19970;-86
2021/12/27 08:01:34;;;;;;;;;;;;;;;6.86;nan;99213.22;5053685;28;19921;-85
2021/12/27 08:03:59;;;;;;;;;;;;;;;6.85;nan;99212.41;5053434;28;19920;-86
2021/12/27 08:06:24;;;;;;;;;;;;;;;6.87;nan;99207.00;5052526;28;20017;-86
2021/12/27 08:08:50;;;;;;;;;;;;;;;6.91;nan;99200.41;5048124;28;19924;-86
2021/12/27 08:11:15;;;;;;;;;;;;;;;6.94;nan;99198.28;5049728;28;20003;-86
2021/12/27 08:13:42;;;;;;;;;;;;;;;6.94;nan;99200.09;5053097;28;19921;-86
2021/12/27 08:16:08;;;;;;;;;;;;;;;6.98;nan;99209.28;5051134;28;20378;-86
2021/12/27 08:18:33;;;;;;;;;;;;;;;6.98;nan;99211.91;5048228;28;19940;-86
2021/12/27 08:20:58;;;;;;;;;;;;;;;7.03;nan;99204.38;5052367;28;19956;-86
2021/12/27 08:23:24;;;;;;;;;;;;;;;7.03;nan;99199.13;5052210;28;19939;-85
2021/12/27 08:25:49;;;;;;;;;;;;;;;7.04;nan;99192.88;5055177;28;20225;-86
2021/12/27 08:28:14;;;;;;;;;;;;;;;7.04;nan;99192.06;5047101;28;19931;-86
2021/12/27 08:30:39;;;;;;;;;;;;;;;7.06;nan;99190.13;5053471;28;20410;-85
2021/12/27 08:33:04;;;;;;;;;;;;;;;7.08;nan;99188.13;5044153;28;19975;-85
2021/12/27 08:35:30;;;;;;;;;;;;;;;7.14;nan;99195.38;5053962;28;19932;-84
2021/12/27 08:37:55;;;;;;;;;;;;;;;7.19;nan;99185.19;5057697;28;19928;-85
2021/12/27 08:40:20;;;;;;;;;;;;;;;7.22;nan;99198.84;5051584;28;19975;-86
2021/12/27 08:42:46;;;;;;;;;;;;;;;7.25;nan;99195.06;5035230;28;20015;-86
2021/12/27 08:45:12;;;;;;;;;;;;;;;7.30;nan;99197.19;5057745;28;19928;-85
2021/12/27 08:47:38;;;;;;;;;;;;;;;7.31;nan;99206.72;5050392;28;19924;-85
2021/12/27 08:50:04;;;;;;;;;;;;;;;7.31;nan;99207.53;5039228;28;19956;-86
2021/12/27 08:52:30;;;;;;;;;;;;;;;7.28;nan;99199.97;5031819;28;20028;-85
2021/12/27 08:54:55;;;;;;;;;;;;;;;7.29;nan;99200.78;5028928;28;19925;-86
2021/12/27 08:57:20;;;;;;;;;;;;;;;7.31;nan;99197.03;5030798;28;20012;-85
2021/12/27 08:59:45;;;;;;;;;;;;;;;7.30;nan;99192.75;5045489;28;20396;-85
2021/12/27 09:02:12;;;;;;;;;;;;;;;7.36;nan;99184.19;5053528;28;19920;-85
2021/12/27 09:04:37;;;;;;;;;;;;;;;7.32;nan;99182.09;5047098;28;19921;-85
2021/12/27 09:07:02;;;;;;;;;;;;;;;7.32;nan;99179.47;5053183;28;20455;-85
2021/12/27 09:09:28;;;;;;;;;;;;;;;7.33;nan;99171.38;5048107;28;20434;-85
2021/12/27 09:11:53;;;;;;;;;;;;;;;7.37;nan;99169.25;5053694;28;19921;-86
2021/12/27 09:14:18;;;;;;;;;;;;;;;7.45;nan;99164.81;5053031;28;20332;-86
2021/12/27 09:16:44;;;;;;;;;;;;;;;7.49;nan;99162.69;5054502;28;19932;-85
2021/12/27 09:19:11;;;;;;;;;;;;;;;7.50;nan;99156.41;5052462;28;19944;-86
2021/12/27 09:21:41;;;;;;;;;;;;;;;7.57;nan;99156.59;5054873;28;19924;-87
2021/12/27 09:24:07;;;;;;;;;;;;;;;7.60;nan;99151.84;5045975;28;19939;-85
2021/12/27 09:26:33;;;;;;;;;;;;;;;7.60;nan;99150.97;5047765;28;20498;-85
2021/12/27 09:28:58;;;;;;;;;;;;;;;7.58;nan;99160.84;5044797;28;20413;-85
2021/12/27 09:31:23;;;;;;;;;;;;;;;7.58;nan;99150.31;5053853;28;19936;-84
2021/12/27 09:33:49;;;;;;;;;;;;;;;7.51;nan;99147.56;5047808;28;19976;-84
2021/12/27 09:36:14;;;;;;;;;;;;;;;7.55;nan;99148.84;5053165;28;19924;-84
2021/12/27 09:38:39;;;;;;;;;;;;;;;7.65;nan;99146.88;5053907;28;19943;-84
2021/12/27 09:41:04;;;;;;;;;;;;;;;7.72;nan;99139.13;5048782;28;19920;-84
2021/12/27 09:43:30;;;;;;;;;;;;;;;7.72;nan;99136.50;5048760;28;19936;-84
2021/12/27 09:45:55;;;;;;;;;;;;;;;7.76;nan;99135.19;5053039;28;19925;-85
2021/12/27 09:48:20;;;;;;;;;;;;;;;7.81;nan;99134.66;5051370;28;19929;-85
2021/12/27 09:50:48;;;;;;;;;;;;;;;7.90;nan;99140.75;5053125;28;19944;-84
2021/12/27 09:53:14;;;;;;;;;;;;;;;8.08;nan;99136.91;5053199;28;19921;-85
2021/12/27 09:55:39;;;;;;;;;;;;;;;8.14;nan;99135.41;5051535;28;19944;-85
2021/12/27 09:58:05;;;;;;;;;;;;;;;8.23;nan;99130.94;5051906;28;19964;-86
2021/12/27 10:00:31;;;;;;;;;;;;;;;8.26;nan;99134.03;5050800;28;19925;-85
2021/12/27 10:02:57;;;;;;;;;;;;;;;8.37;nan;99122.31;5034368;28;19928;-85
2021/12/27 10:05:23;;;;;;;;;;;;;;;8.45;nan;99111.75;5048862;28;19920;-84
2021/12/27 10:07:48;;;;;;;;;;;;;;;8.54;nan;99107.25;5032772;28;19925;-86
2021/12/27 10:10:13;;;;;;;;;;;;;;;8.61;nan;99110.03;5033410;28;20011;-85
2021/12/27 10:12:39;;;;;;;;;;;;;;;8.67;nan;99115.41;5033155;28;19928;-85
2021/12/27 10:15:07;;;;;;;;;;;;;;;8.82;nan;99118.13;5009858;28;20486;-85
2021/12/27 10:17:35;;;;;;;;;;;;;;;9.02;nan;99104.47;5011718;28;20019;-86
2021/12/27 10:20:09;;;;;;;;;;;;;;;9.18;nan;99111.44;5031773;28;19940;-86
2021/12/27 10:22:44;;;;;;;;;;;;;;;9.40;nan;99104.50;5030137;28;19971;-86
2021/12/27 10:25:16;;;;;;;;;;;;;;;9.56;nan;99104.34;5011087;28;19979;-86
2021/12/27 10:27:42;;;;;;;;;;;;;;;9.56;nan;99099.88;5008338;28;20484;-86
2021/12/27 10:30:11;;;;;;;;;;;;;;;9.64;nan;99106.88;5026072;28;19918;-86
2021/12/27 10:32:36;;;;;;;;;;;;;;;9.75;nan;99108.28;5002308;28;19928;-86
2021/12/27 10:35:04;;;;;;;;;;;;;;;9.73;nan;99108.44;5011920;28;20012;-86
2021/12/27 10:37:33;;;;;;;;;;;;;;;9.61;nan;99106.44;5006697;28;19925;-86
2021/12/27 10:40:04;;;;;;;;;;;;;;;9.63;nan;99101.78;5014384;28;20020;-86
2021/12/27 10:42:40;;;;;;;;;;;;;;;9.68;nan;99102.09;5017820;28;19925;-86
2021/12/27 10:45:05;;;;;;;;;;;;;;;9.79;nan;99104.25;5030284;28;19925;-86
2021/12/27 10:47:34;;;;;;;;;;;;;;;9.97;nan;99085.41;5033080;28;19920;-86
2021/12/27 10:50:11;;;;;;;;;;;;;;;10.10;nan;99082.94;5036578;28;19921;-86
2021/12/27 10:52:43;;;;;;;;;;;;;;;9.99;nan;99078.13;5034590;28;19925;-86
2021/12/27 10:55:08;;;;;;;;;;;;;;;9.85;nan;99074.50;5013716;28;19921;-87
2021/12/27 10:57:34;;;;;;;;;;;;;;;9.81;nan;99078.50;5027730;28;19931;-86
2021/12/27 11:00:13;;;;;;;;;;;;;;;9.75;nan;99079.25;5040442;28;20034;-86
2021/12/27 11:02:38;;;;;;;;;;;;;;;9.67;nan;99077.47;5048263;28;20299;-86
2021/12/27 11:05:14;;;;;;;;;;;;;;;9.67;nan;99074.03;5042995;28;19928;-86
2021/12/27 11:07:40;;;;;;;;;;;;;;;9.69;nan;99074.69;5054786;28;19943;-86
2021/12/27 11:10:06;;;;;;;;;;;;;;;9.63;nan;99078.03;5046228;28;20374;-88
2021/12/27 11:12:31;;;;;;;;;;;;;;;9.67;nan;99074.84;5045053;28;19927;-86
2021/12/27 11:14:57;;;;;;;;;;;;;;;9.67;nan;99079.31;5053463;28;19947;-86
2021/12/27 11:17:22;;;;;;;;;;;;;;;9.74;nan;99074.94;5042934;28;19925;-85
2021/12/27 11:19:47;;;;;;;;;;;;;;;9.75;nan;99071.31;5061785;28;19917;-86
2021/12/27 11:22:12;;;;;;;;;;;;;;;9.76;nan;99063.19;5062515;28;19980;-86
2021/12/27 11:24:38;;;;;;;;;;;;;;;9.76;nan;99059.75;5044211;28;20019;-86
2021/12/27 11:27:11;;;;;;;;;;;;;;;9.78;nan;99063.03;5045690;28;20427;-86
2021/12/27 11:29:36;;;;;;;;;;;;;;;9.78;nan;99049.81;5038355;28;19921;-86
2021/12/27 11:32:16;;;;;;;;;;;;;;;9.74;nan;99048.53;5041920;28;19928;-86
2021/12/27 11:34:58;;;;;;;;;;;;;;;9.70;nan;99041.97;5046479;28;19936;-86
2021/12/27 11:37:36;;;;;;;;;;;;;;;9.68;nan;99041.38;5068127;28;20301;-86
2021/12/27 11:40:03;;;;;;;;;;;;;;;9.57;nan;99045.28;5050805;28;19930;-87
2021/12/27 11:42:28;;;;;;;;;;;;;;;9.48;nan;99039.25;5071348;28;19921;-86
2021/12/27 11:44:56;;;;;;;;;;;;;;;9.42;nan;99040.00;5051235;28;20440;-87
2021/12/27 11:47:23;;;;;;;;;;;;;;;9.38;nan;99043.16;5049508;28;19950;-86
2021/12/27 11:49:51;;;;;;;;;;;;;;;9.40;nan;99046.44;5053656;28;19920;-87
2021/12/27 11:52:19;;;;;;;;;;;;;;;9.36;nan;99043.34;5053995;28;19921;-87
2021/12/27 11:55:03;;;;;;;;;;;;;;;9.22;nan;99044.94;5039089;28;19917;-86
2021/12/27 11:57:48;;;;;;;;;;;;;;;9.21;nan;99053.06;5050397;28;20371;-87
2021/12/27 12:00:16;;;;;;;;;;;;;;;9.12;nan;99050.47;5043751;28;19921;-87
2021/12/27 12:02:41;;;;;;;;;;;;;;;9.12;nan;99055.75;5037809;28;19928;-87
2021/12/27 12:05:07;;;;;;;;;;;;;;;9.09;nan;99045.56;5045843;28;20350;-87
2021/12/27 12:07:35;;;;;;;;;;;;;;;9.06;nan;99051.22;5051746;28;20282;-87
2021/12/27 12:10:05;;;;;;;;;;;;;;;9.03;nan;99048.91;5047037;28;20019;-87
2021/12/27 12:12:31;;;;;;;;;;;;;;;8.97;nan;99047.00;5038342;28;19932;-86
2021/12/27 12:14:57;;;;;;;;;;;;;;;8.97;nan;99054.91;5047846;28;20207;-87
2021/12/27 12:17:41;;;;;;;;;;;;;;;9.06;nan;99047.75;5036267;28;19925;-87
2021/12/27 12:20:27;;;;;;;;;;;;;;;9.09;nan;99056.13;5033545;28;20055;-87
2021/12/27 12:23:08;;;;;;;;;;;;;;;9.17;nan;99043.88;5014245;28;20015;-87
2021/12/27 12:25:34;;;;;;;;;;;;;;;9.17;nan;99046.50;5009766;28;19968;-87
2021/12/27 12:28:01;;;;;;;;;;;;;;;9.21;nan;99043.31;5013146;28;20023;-87
2021/12/27 12:30:34;;;;;;;;;;;;;;;9.18;nan;99038.41;5030080;28;20032;-87
2021/12/27 12:33:06;;;;;;;;;;;;;;;9.20;nan;99033.78;5034021;28;19925;-87
2021/12/27 12:35:32;;;;;;;;;;;;;;;9.24;nan;99042.97;5027567;28;20283;-87
2021/12/27 12:38:16;;;;;;;;;;;;;;;9.27;nan;99041.78;5048593;28;19925;-87
2021/12/27 12:40:42;;;;;;;;;;;;;;;9.32;nan;99044.72;5044292;28;19955;-87
2021/12/27 12:43:07;;;;;;;;;;;;;;;9.34;nan;99053.25;5051640;28;19960;-87
2021/12/27 12:45:32;;;;;;;;;;;;;;;9.35;nan;99047.00;5048238;28;20157;-87
2021/12/27 12:47:58;;;;;;;;;;;;;;;9.35;nan;99045.16;5051672;28;19927;-87
2021/12/27 12:50:27;;;;;;;;;;;;;;;9.40;nan;99049.09;5048194;28;20309;-87
2021/12/27 12:52:56;;;;;;;;;;;;;;;9.34;nan;99045.34;5041723;28;19939;-87
2021/12/27 12:55:23;;;;;;;;;;;;;;;9.38;nan;99043.16;5051514;28;20327;-87
2021/12/27 12:57:50;;;;;;;;;;;;;;;9.42;nan;99047.09;5037828;28;19952;-87
2021/12/27 13:00:20;;;;;;;;;;;;;;;9.45;nan;99050.19;5049504;28;19924;-87
2021/12/27 13:02:45;;;;;;;;;;;;;;;9.54;nan;99043.81;5043317;28;19921;-87
2021/12/27 13:05:15;;;;;;;;;;;;;;;9.56;nan;99047.09;5037880;28;19921;-87
2021/12/27 13:07:44;;;;;;;;;;;;;;;9.50;nan;99047.00;5048245;28;19978;-88
2021/12/27 13:10:29;;;;;;;;;;;;;;;9.45;nan;99039.63;5042294;28;20015;-87
2021/12/27 13:12:56;;;;;;;;;;;;;;;9.45;nan;99039.63;5065018;28;19955;-86
2021/12/27 13:15:44;;;;;;;;;;;;;;;9.41;nan;99037.53;5050428;28;19920;-87
2021/12/27 13:18:16;;;;;;;;;;;;;;;9.32;nan;99036.81;5045251;28;19982;-87